Time;durP1;ratioP1;P1;durP2;ratioP2;P2;SDS_P1;SDS_P2;PMS_P1;PMS_P2;Temp;Humidity;BMP_temperature;BMP_pressure;BME280_temperature;BME280_humidity;BME280_pressure;Samples;Min_cycle;Max_cycle;Signal;HPM_P1;HPM_P2
2023/07/26 00:00:02;;;;;;;2.45;0.80;;;21.40;66.00;;;;;;5012464;28;20432;-59
2023/07/26 00:02:28;;;;;;;2.05;0.60;;;21.40;66.10;;;;;;5012219;28;20076;-59
2023/07/26 00:04:54;;;;;;;2.97;0.80;;;21.40;66.00;;;;;;5012261;28;20548;-60
2023/07/26 00:07:19;;;;;;;2.03;0.68;;;21.30;66.00;;;;;;5016434;28;20066;-59
2023/07/26 00:09:45;;;;;;;1.15;0.70;;;21.30;65.90;;;;;;5015110;28;20401;-60
2023/07/26 00:12:10;;;;;;;1.52;0.60;;;21.30;66.50;;;;;;5016627;28;20172;-59
2023/07/26 00:14:36;;;;;;;2.25;0.70;;;21.30;65.90;;;;;;5016018;28;20048;-59
2023/07/26 00:17:02;;;;;;;1.88;0.70;;;21.30;65.90;;;;;;5016395;28;20041;-59
2023/07/26 00:19:27;;;;;;;2.38;0.65;;;21.30;65.90;;;;;;5016011;28;20057;-58
2023/07/26 00:21:53;;;;;;;2.35;0.80;;;21.30;65.90;;;;;;5015511;28;20057;-59
2023/07/26 00:24:18;;;;;;;1.15;0.60;;;21.30;66.00;;;;;;5016566;28;20038;-59
2023/07/26 00:26:44;;;;;;;1.70;0.80;;;21.30;66.00;;;;;;5016194;28;20096;-59
2023/07/26 00:29:09;;;;;;;1.85;0.70;;;21.30;65.90;;;;;;5015710;28;20374;-59
2023/07/26 00:31:35;;;;;;;2.13;0.80;;;21.30;66.00;;;;;;5015455;28;20046;-59
2023/07/26 00:34:00;;;;;;;1.17;0.65;;;21.30;66.00;;;;;;5015715;28;20056;-59
2023/07/26 00:36:26;;;;;;;2.10;0.70;;;21.30;66.00;;;;;;5015850;28;20042;-59
2023/07/26 00:38:51;;;;;;;1.58;0.80;;;21.30;65.90;;;;;;5015975;28;20501;-59
2023/07/26 00:41:17;;;;;;;2.53;0.95;;;21.30;65.90;;;;;;5015780;28;20124;-59
2023/07/26 00:43:43;;;;;;;1.48;0.90;;;21.30;66.00;;;;;;5015542;28;20045;-59
2023/07/26 00:46:08;;;;;;;2.38;0.73;;;21.30;66.00;;;;;;5015604;28;20123;-59
2023/07/26 00:48:34;;;;;;;2.67;0.90;;;21.30;66.00;;;;;;5015591;28;20129;-60
2023/07/26 00:51:00;;;;;;;2.17;0.80;;;21.30;66.00;;;;;;5014350;28;20053;-59
2023/07/26 00:53:26;;;;;;;1.50;0.70;;;21.30;66.00;;;;;;5014658;28;20473;-59
2023/07/26 00:55:53;;;;;;;1.23;0.70;;;21.30;66.20;;;;;;5015631;28;20050;-59
2023/07/26 00:58:19;;;;;;;2.60;0.80;;;21.30;66.30;;;;;;5014368;28;20041;-59
2023/07/26 01:00:45;;;;;;;2.20;0.82;;;21.30;66.00;;;;;;5015306;28;20128;-59
2023/07/26 01:03:10;;;;;;;1.65;0.77;;;21.20;66.00;;;;;;5015756;28;20045;-59
2023/07/26 01:05:44;;;;;;;1.98;0.73;;;21.30;66.00;;;;;;5014328;28;20030;-59
2023/07/26 01:08:14;;;;;;;1.38;0.77;;;21.20;66.60;;;;;;5014472;28;20054;-60
2023/07/26 01:10:51;;;;;;;1.65;0.73;;;21.20;66.00;;;;;;5013663;28;20068;-59
2023/07/26 01:13:44;;;;;;;1.52;0.70;;;21.20;66.00;;;;;;5015591;28;20090;-59
2023/07/26 01:16:09;;;;;;;1.58;0.63;;;21.20;66.00;;;;;;5015130;28;20088;-59
2023/07/26 01:18:35;;;;;;;1.73;0.73;;;21.20;66.00;;;;;;5013224;28;20424;-59
2023/07/26 01:21:01;;;;;;;2.58;0.95;;;21.20;66.00;;;;;;4997474;28;20054;-59
2023/07/26 01:23:26;;;;;;;1.85;0.70;;;21.20;66.00;;;;;;5015657;28;20128;-59
2023/07/26 01:25:52;;;;;;;1.98;0.90;;;21.20;66.00;;;;;;5013006;28;20097;-59
2023/07/26 01:28:20;;;;;;;1.95;0.75;;;21.20;66.00;;;;;;5015258;28;20092;-59
2023/07/26 01:30:46;;;;;;;1.42;0.65;;;21.20;66.00;;;;;;5015359;28;20074;-59
2023/07/26 01:33:11;;;;;;;1.05;0.55;;;21.20;66.00;;;;;;5013217;28;20473;-59
2023/07/26 01:35:37;;;;;;;1.98;0.80;;;21.20;66.00;;;;;;5013592;28;20048;-59
2023/07/26 01:38:03;;;;;;;1.13;0.70;;;21.20;66.00;;;;;;5013512;28;20100;-59
2023/07/26 01:40:28;;;;;;;2.47;0.90;;;21.20;66.00;;;;;;5013037;28;20397;-59
2023/07/26 01:42:54;;;;;;;2.25;0.82;;;21.20;66.00;;;;;;5014780;28;20393;-59
2023/07/26 01:45:20;;;;;;;2.05;0.98;;;21.20;66.00;;;;;;5014215;28;20050;-59
2023/07/26 01:47:46;;;;;;;1.70;0.85;;;21.20;66.10;;;;;;4996560;28;20045;-59
2023/07/26 01:50:11;;;;;;;1.10;0.70;;;21.20;66.10;;;;;;5014717;28;20539;-59
2023/07/26 01:52:37;;;;;;;1.85;0.60;;;21.20;66.10;;;;;;5013068;28;20042;-59
2023/07/26 01:55:03;;;;;;;1.42;0.70;;;21.20;66.10;;;;;;5019392;28;20037;-59
2023/07/26 01:57:28;;;;;;;2.40;0.90;;;21.20;66.70;;;;;;5034347;28;20492;-59
2023/07/26 01:59:54;;;;;;;3.05;0.90;;;21.20;66.10;;;;;;5021564;28;20053;-59
2023/07/26 02:02:19;;;;;;;1.27;0.70;;;21.20;66.10;;;;;;5014670;28;20050;-59
2023/07/26 02:04:45;;;;;;;2.08;0.90;;;21.20;66.10;;;;;;5013456;28;20052;-59
2023/07/26 02:07:11;;;;;;;2.45;0.80;;;21.20;66.10;;;;;;5013910;28;20397;-59
2023/07/26 02:09:36;;;;;;;1.40;0.75;;;21.10;66.10;;;;;;5014215;28;20046;-59
2023/07/26 02:12:02;;;;;;;1.88;0.90;;;21.10;66.10;;;;;;5014374;28;20038;-59
2023/07/26 02:14:28;;;;;;;1.15;0.73;;;21.20;66.10;;;;;;5014060;28;20073;-59
2023/07/26 02:16:53;;;;;;;2.83;0.98;;;21.20;66.20;;;;;;5013588;28;20053;-59
2023/07/26 02:19:19;;;;;;;2.97;0.60;;;21.10;66.10;;;;;;5019230;28;20072;-59
2023/07/26 02:21:45;;;;;;;1.85;1.00;;;21.10;66.10;;;;;;5033148;28;20055;-59
2023/07/26 02:24:10;;;;;;;1.38;0.70;;;21.10;66.10;;;;;;5033440;28;20670;-59
2023/07/26 02:26:36;;;;;;;1.55;0.80;;;21.10;66.10;;;;;;5033501;28;20049;-59
2023/07/26 02:29:01;;;;;;;1.85;0.80;;;21.10;66.10;;;;;;5033050;28;20120;-59
2023/07/26 02:31:27;;;;;;;1.40;0.60;;;21.10;66.20;;;;;;5032531;28;20079;-59
2023/07/26 02:33:52;;;;;;;1.35;0.70;;;21.10;66.10;;;;;;5033217;28;20845;-59
2023/07/26 02:36:18;;;;;;;1.27;0.80;;;21.10;66.10;;;;;;5033366;28;20037;-59
2023/07/26 02:38:44;;;;;;;1.65;0.70;;;21.10;66.10;;;;;;5032903;28;20041;-59
2023/07/26 02:41:09;;;;;;;1.48;0.70;;;21.10;66.20;;;;;;5033674;28;20501;-59
2023/07/26 02:43:35;;;;;;;1.15;0.65;;;21.10;66.10;;;;;;5032952;28;20045;-59
2023/07/26 02:46:00;;;;;;;1.42;0.60;;;21.10;66.20;;;;;;5032941;28;20177;-59
2023/07/26 02:48:26;;;;;;;1.55;0.80;;;21.10;66.20;;;;;;5033614;28;20384;-59
2023/07/26 02:50:52;;;;;;;1.92;0.90;;;21.10;66.20;;;;;;5032221;28;20400;-59
2023/07/26 02:53:18;;;;;;;1.58;0.77;;;21.10;66.20;;;;;;5032772;28;20506;-59
2023/07/26 02:55:43;;;;;;;1.63;0.80;;;21.10;66.20;;;;;;5032715;28;20060;-59
2023/07/26 02:58:09;;;;;;;1.92;0.70;;;21.10;66.20;;;;;;5031544;28;20040;-59
2023/07/26 03:00:34;;;;;;;1.40;0.70;;;21.10;66.30;;;;;;5031717;28;20127;-59
2023/07/26 03:03:00;;;;;;;1.58;0.70;;;21.10;66.30;;;;;;5032965;28;20042;-59
2023/07/26 03:05:25;;;;;;;2.13;0.98;;;21.10;66.20;;;;;;5033159;28;20041;-59
2023/07/26 03:07:51;;;;;;;1.35;0.70;;;21.10;66.30;;;;;;5032853;28;20040;-59
2023/07/26 03:10:17;;;;;;;1.80;0.82;;;21.10;66.30;;;;;;5032213;28;20045;-59
2023/07/26 03:12:43;;;;;;;1.55;0.77;;;21.10;66.30;;;;;;5031261;28;20132;-59
2023/07/26 03:15:09;;;;;;;1.13;0.60;;;21.10;66.30;;;;;;5032655;28;20124;-59
2023/07/26 03:17:34;;;;;;;1.38;0.60;;;21.00;66.20;;;;;;5031913;28;20460;-59
2023/07/26 03:20:00;;;;;;;1.73;0.75;;;21.00;66.30;;;;;;5032375;28;20033;-59
2023/07/26 03:22:25;;;;;;;2.55;0.90;;;21.00;66.30;;;;;;5032813;28;20092;-59
2023/07/26 03:24:51;;;;;;;2.25;0.70;;;21.00;66.30;;;;;;5031998;28;20044;-59
2023/07/26 03:27:16;;;;;;;1.17;0.68;;;21.00;66.30;;;;;;5032706;28;20034;-59
2023/07/26 03:29:42;;;;;;;1.75;0.90;;;21.00;66.30;;;;;;5032188;28;20110;-59
2023/07/26 03:32:08;;;;;;;1.17;0.63;;;21.00;66.30;;;;;;5032074;28;20046;-59
2023/07/26 03:34:33;;;;;;;2.28;0.77;;;21.00;66.30;;;;;;5032146;28;20140;-59
2023/07/26 03:37:00;;;;;;;1.17;0.60;;;21.00;66.30;;;;;;5032752;28;20572;-59
2023/07/26 03:39:26;;;;;;;2.28;0.70;;;21.00;66.30;;;;;;5031452;28;20128;-59
2023/07/26 03:41:51;;;;;;;1.42;0.70;;;21.00;66.30;;;;;;5032127;28;20076;-59
2023/07/26 03:44:17;;;;;;;1.67;0.70;;;21.00;66.30;;;;;;5031209;28;20094;-59
2023/07/26 03:46:43;;;;;;;1.63;0.70;;;21.00;66.30;;;;;;5031713;28;20034;-59
2023/07/26 03:49:08;;;;;;;1.00;0.57;;;21.00;66.30;;;;;;5031116;28;20052;-59
2023/07/26 03:51:34;;;;;;;2.13;0.80;;;21.00;66.30;;;;;;5012496;28;20042;-59
2023/07/26 03:53:59;;;;;;;1.73;0.70;;;21.00;66.40;;;;;;5011920;28;20196;-59
2023/07/26 03:56:25;;;;;;;1.45;0.75;;;21.00;66.40;;;;;;5012223;28;20049;-59
2023/07/26 03:58:50;;;;;;;1.10;0.77;;;21.00;66.40;;;;;;5012774;28;20038;-60
2023/07/26 04:01:16;;;;;;;1.58;0.80;;;21.00;66.40;;;;;;5022626;28;20037;-59
2023/07/26 04:03:41;;;;;;;1.67;0.65;;;21.00;66.40;;;;;;5031474;28;20046;-59
2023/07/26 04:06:11;;;;;;;1.23;0.70;;;20.90;66.40;;;;;;5015351;28;20045;-59
2023/07/26 04:08:37;;;;;;;2.13;0.98;;;20.90;66.40;;;;;;5011746;28;20046;-59
2023/07/26 04:11:03;;;;;;;1.33;0.70;;;20.90;66.30;;;;;;5012554;28;20054;-59
2023/07/26 04:13:28;;;;;;;1.52;0.80;;;20.90;66.30;;;;;;5012010;28;20050;-59
2023/07/26 04:15:54;;;;;;;1.15;0.70;;;20.90;66.30;;;;;;5011321;28;20069;-59
2023/07/26 04:18:19;;;;;;;0.80;0.50;;;20.90;66.40;;;;;;5012637;28;20065;-59
2023/07/26 04:20:45;;;;;;;1.23;0.70;;;20.90;66.40;;;;;;5011682;28;20104;-60
2023/07/26 04:23:11;;;;;;;1.42;0.70;;;20.90;66.40;;;;;;5012411;28;20042;-59
2023/07/26 04:25:36;;;;;;;1.08;0.70;;;20.90;66.40;;;;;;5012096;28;20054;-59
2023/07/26 04:28:02;;;;;;;1.35;0.60;;;20.90;66.40;;;;;;5012161;28;20077;-59
2023/07/26 04:30:28;;;;;;;1.63;0.75;;;20.90;66.40;;;;;;5012184;28;20584;-59
2023/07/26 04:32:53;;;;;;;1.23;0.70;;;20.90;66.50;;;;;;5011173;28;20521;-59
2023/07/26 04:35:19;;;;;;;0.82;0.60;;;20.90;66.60;;;;;;5012148;28;20046;-59
2023/07/26 04:37:44;;;;;;;2.10;0.65;;;20.90;66.60;;;;;;5011999;28;20037;-59
2023/07/26 04:40:10;;;;;;;1.33;0.70;;;20.90;66.70;;;;;;5012324;28;20481;-59
2023/07/26 04:42:36;;;;;;;1.38;0.70;;;20.90;66.90;;;;;;5011712;28;20042;-59
2023/07/26 04:45:01;;;;;;;1.35;0.80;;;20.90;66.90;;;;;;5012289;28;20141;-59
2023/07/26 04:47:27;;;;;;;1.85;0.80;;;20.90;66.90;;;;;;5012076;28;20050;-59
2023/07/26 04:49:53;;;;;;;0.75;0.60;;;20.90;67.00;;;;;;5011302;28;20091;-59
2023/07/26 04:52:18;;;;;;;1.42;0.70;;;21.00;67.00;;;;;;5014297;28;20042;-59
2023/07/26 04:54:44;;;;;;;1.40;0.90;;;20.90;67.00;;;;;;5015643;28;20393;-60
2023/07/26 04:57:09;;;;;;;1.52;0.80;;;20.90;67.00;;;;;;5015315;28;20133;-59
2023/07/26 04:59:35;;;;;;;1.52;0.80;;;21.00;67.10;;;;;;5015523;28;20041;-59
2023/07/26 05:02:01;;;;;;;1.30;0.80;;;20.90;67.00;;;;;;5015322;28;20046;-59
2023/07/26 05:04:26;;;;;;;1.42;0.75;;;20.90;67.00;;;;;;5015005;28;20046;-59
2023/07/26 05:06:52;;;;;;;2.40;1.00;;;20.90;67.10;;;;;;5014603;28;20034;-59
2023/07/26 05:09:18;;;;;;;1.35;0.65;;;20.90;67.10;;;;;;5015544;28;20440;-59
2023/07/26 05:11:43;;;;;;;1.98;0.82;;;20.90;67.10;;;;;;5015789;28;20045;-59
2023/07/26 05:14:09;;;;;;;0.98;0.60;;;20.90;67.10;;;;;;5015990;28;20551;-59
2023/07/26 05:16:34;;;;;;;1.27;0.60;;;20.90;67.00;;;;;;5014718;28;20049;-59
2023/07/26 05:19:00;;;;;;;1.10;0.60;;;20.90;67.10;;;;;;5015051;28;20076;-59
2023/07/26 05:21:25;;;;;;;1.45;0.70;;;20.90;67.10;;;;;;5014687;28;20046;-59
2023/07/26 05:23:51;;;;;;;1.10;0.70;;;20.90;67.10;;;;;;5014601;28;20096;-59
2023/07/26 05:26:17;;;;;;;2.58;0.75;;;20.90;67.10;;;;;;5013878;28;20081;-59
2023/07/26 05:28:42;;;;;;;1.05;0.68;;;20.90;67.10;;;;;;5013240;28;20493;-59
2023/07/26 05:31:08;;;;;;;1.42;0.70;;;20.90;67.10;;;;;;5014856;28;20092;-59
2023/07/26 05:33:33;;;;;;;1.38;0.60;;;20.90;67.20;;;;;;5014800;28;20066;-59
2023/07/26 05:35:59;;;;;;;1.63;0.80;;;20.90;67.10;;;;;;5014759;28;20367;-59
2023/07/26 05:38:24;;;;;;;1.58;0.68;;;20.90;67.20;;;;;;5014665;28;20042;-59
2023/07/26 05:40:50;;;;;;;1.30;0.60;;;20.90;67.20;;;;;;5014744;28;20065;-59
2023/07/26 05:43:19;;;;;;;1.40;0.70;;;21.00;67.30;;;;;;5013976;28;20085;-59
2023/07/26 05:45:44;;;;;;;3.70;1.00;;;20.90;67.20;;;;;;5025500;28;20095;-59
2023/07/26 05:48:10;;;;;;;1.33;0.60;;;20.90;67.20;;;;;;5034123;28;20053;-58
2023/07/26 05:50:35;;;;;;;0.80;0.68;;;20.90;67.20;;;;;;5029030;28;20484;-59
2023/07/26 05:53:01;;;;;;;1.40;0.80;;;20.90;67.20;;;;;;5021208;28;20136;-59
2023/07/26 05:55:27;;;;;;;1.63;0.70;;;20.90;67.20;;;;;;5033969;28;20041;-59
2023/07/26 05:57:52;;;;;;;4.15;0.70;;;20.90;67.20;;;;;;5033633;28;20037;-59
2023/07/26 06:00:19;;;;;;;3.17;0.70;;;20.90;67.10;;;;;;5033035;28;20072;-59
2023/07/26 06:02:45;;;;;;;0.98;0.73;;;20.90;67.10;;;;;;5032652;28;20045;-59
2023/07/26 06:05:10;;;;;;;2.15;0.98;;;20.90;67.10;;;;;;5033421;28;20087;-59
2023/07/26 06:07:36;;;;;;;2.85;1.00;;;20.90;67.20;;;;;;5029129;28;20184;-59
2023/07/26 06:10:03;;;;;;;4.00;0.90;;;20.90;67.40;;;;;;5014205;28;20075;-59
2023/07/26 06:12:29;;;;;;;2.95;0.90;;;20.90;67.60;;;;;;5020242;28;20439;-58
2023/07/26 06:14:55;;;;;;;3.60;1.02;;;20.90;67.70;;;;;;5033243;28;20120;-58
2023/07/26 06:17:20;;;;;;;3.25;1.15;;;20.90;67.70;;;;;;5033011;28;20049;-58
2023/07/26 06:19:46;;;;;;;1.67;0.70;;;20.90;67.80;;;;;;5032523;28;20045;-58
2023/07/26 06:22:12;;;;;;;2.17;0.80;;;20.90;67.70;;;;;;5029665;28;20053;-57
2023/07/26 06:24:37;;;;;;;3.60;1.30;;;21.00;67.80;;;;;;5029789;28;20124;-58
2023/07/26 06:27:04;;;;;;;5.68;0.98;;;21.00;67.80;;;;;;5033025;28;20056;-58
2023/07/26 06:29:29;;;;;;;2.35;0.80;;;21.00;67.80;;;;;;5032541;28;20041;-57
2023/07/26 06:31:55;;;;;;;4.28;1.00;;;21.00;67.90;;;;;;5030463;28;20040;-58
2023/07/26 06:34:21;;;;;;;3.35;0.90;;;21.00;67.90;;;;;;5029519;28;20477;-58
2023/07/26 06:36:46;;;;;;;3.70;0.98;;;21.10;68.00;;;;;;5031958;28;20041;-59
2023/07/26 06:39:12;;;;;;;5.10;1.13;;;21.10;68.10;;;;;;5033535;28;20045;-58
2023/07/26 06:41:38;;;;;;;3.55;0.82;;;21.10;68.20;;;;;;5032653;28;20152;-59
2023/07/26 06:44:03;;;;;;;4.35;0.85;;;21.10;68.20;;;;;;5033221;28;20169;-59
2023/07/26 06:46:29;;;;;;;2.45;0.98;;;21.10;68.30;;;;;;5032330;28;20464;-59
2023/07/26 06:48:54;;;;;;;4.65;1.00;;;21.10;68.20;;;;;;5032363;28;20053;-59
2023/07/26 06:51:20;;;;;;;5.38;1.20;;;21.10;68.20;;;;;;5033414;28;20060;-59
2023/07/26 06:53:45;;;;;;;4.55;1.05;;;21.10;68.20;;;;;;5032804;28;20132;-59
2023/07/26 06:56:12;;;;;;;4.00;0.90;;;21.10;68.20;;;;;;5031664;28;20048;-59
2023/07/26 06:58:37;;;;;;;4.30;0.98;;;21.10;68.20;;;;;;5032690;28;20098;-58
2023/07/26 07:01:03;;;;;;;4.45;1.30;;;21.10;68.20;;;;;;5027901;28;20416;-61
2023/07/26 07:03:29;;;;;;;3.40;1.20;;;21.10;68.30;;;;;;5019325;28;20034;-63
2023/07/26 07:05:54;;;;;;;3.17;1.27;;;21.10;68.30;;;;;;5029067;28;20056;-58
2023/07/26 07:08:20;;;;;;;1.45;0.73;;;21.10;68.30;;;;;;5031002;28;20120;-58
2023/07/26 07:10:45;;;;;;;7.70;1.17;;;21.10;68.30;;;;;;5028907;28;20041;-59
2023/07/26 07:13:11;;;;;;;6.18;1.20;;;21.10;68.30;;;;;;5032076;28;20390;-59
2023/07/26 07:15:37;;;;;;;5.28;1.20;;;21.20;68.40;;;;;;5018144;28;20398;-59
2023/07/26 07:18:03;;;;;;;1.52;1.00;;;21.20;68.50;;;;;;5023014;28;20077;-58
2023/07/26 07:20:28;;;;;;;3.33;1.20;;;21.20;68.50;;;;;;5023391;28;20099;-59
2023/07/26 07:22:54;;;;;;;2.20;0.70;;;21.20;68.50;;;;;;5031163;28;20061;-59
2023/07/26 07:25:20;;;;;;;2.47;1.10;;;21.20;68.50;;;;;;5024999;28;20044;-59
2023/07/26 07:27:45;;;;;;;2.92;0.90;;;21.20;68.50;;;;;;5028593;28;20041;-59
2023/07/26 07:30:12;;;;;;;3.85;0.95;;;21.20;68.40;;;;;;5015137;28;20128;-60
2023/07/26 07:32:38;;;;;;;16.45;1.67;;;21.20;68.40;;;;;;5024446;28;20079;-60
2023/07/26 07:35:05;;;;;;;6.13;1.02;;;21.20;68.30;;;;;;5027890;28;20081;-60
2023/07/26 07:37:30;;;;;;;6.30;1.15;;;21.20;68.30;;;;;;5031418;28;20507;-60
2023/07/26 07:39:56;;;;;;;5.55;1.20;;;21.20;68.40;;;;;;5030077;28;20631;-60
2023/07/26 07:42:22;;;;;;;4.32;1.00;;;21.20;68.40;;;;;;5031174;28;20044;-59
2023/07/26 07:44:47;;;;;;;2.95;1.02;;;21.30;68.50;;;;;;5031566;28;20041;-60
2023/07/26 07:47:13;;;;;;;5.13;1.30;;;21.20;68.50;;;;;;5029774;28;20071;-60
2023/07/26 07:49:38;;;;;;;5.88;0.93;;;21.20;68.50;;;;;;5031183;28;20550;-60
2023/07/26 07:52:04;;;;;;;4.15;1.05;;;21.20;68.50;;;;;;5030873;28;20045;-60
2023/07/26 07:54:30;;;;;;;5.63;1.20;;;21.20;68.60;;;;;;5030694;28;20087;-60
2023/07/26 07:56:55;;;;;;;2.47;0.93;;;21.20;68.60;;;;;;5031365;28;20044;-61
2023/07/26 07:59:21;;;;;;;4.07;1.23;;;21.20;68.60;;;;;;5029849;28;20041;-59
2023/07/26 08:01:47;;;;;;;4.05;1.35;;;21.20;68.60;;;;;;5030911;28;20040;-59
2023/07/26 08:04:12;;;;;;;3.45;1.10;;;21.20;68.60;;;;;;5031438;28;20128;-59
2023/07/26 08:06:38;;;;;;;2.65;1.13;;;21.20;68.70;;;;;;5030694;28;20751;-59
2023/07/26 08:09:03;;;;;;;4.03;1.17;;;21.20;68.70;;;;;;5028559;28;20075;-59
2023/07/26 08:11:29;;;;;;;3.63;1.50;;;21.20;68.80;;;;;;5031826;28;20091;-58
2023/07/26 08:13:55;;;;;;;3.35;1.05;;;21.20;68.80;;;;;;5029219;28;20136;-59
2023/07/26 08:16:20;;;;;;;3.88;1.02;;;21.20;68.90;;;;;;5031962;28;20048;-57
2023/07/26 08:18:46;;;;;;;3.20;1.05;;;21.20;68.90;;;;;;5031730;28;20175;-58
2023/07/26 08:21:12;;;;;;;3.38;1.20;;;21.20;69.00;;;;;;5031387;28;20049;-59
2023/07/26 08:23:39;;;;;;;2.60;1.08;;;21.20;69.00;;;;;;5031555;28;20056;-59
2023/07/26 08:26:05;;;;;;;5.20;1.27;;;21.10;69.00;;;;;;5025518;28;20477;-59
2023/07/26 08:28:31;;;;;;;4.28;1.10;;;21.10;69.10;;;;;;5014760;28;20073;-58
2023/07/26 08:30:57;;;;;;;2.28;1.23;;;21.20;69.10;;;;;;5023727;28;20030;-59
2023/07/26 08:33:23;;;;;;;3.28;1.17;;;21.20;69.10;;;;;;5022024;28;20045;-58
2023/07/26 08:35:48;;;;;;;4.07;1.13;;;21.20;69.20;;;;;;5034330;28;20048;-58
2023/07/26 08:38:14;;;;;;;6.35;1.10;;;21.20;69.10;;;;;;5034301;28;20143;-58
2023/07/26 08:40:45;;;;;;;3.90;1.13;;;21.20;69.20;;;;;;5034869;28;20385;-59
2023/07/26 08:43:11;;;;;;;2.75;1.08;;;21.20;69.20;;;;;;5035486;28;20049;-59
2023/07/26 08:45:36;;;;;;;2.03;0.77;;;21.10;69.20;;;;;;5035171;28;20033;-59
2023/07/26 08:48:02;;;;;;;2.90;1.30;;;21.20;69.20;;;;;;5017688;28;20084;-58
2023/07/26 08:50:28;;;;;;;4.32;1.10;;;21.20;69.20;;;;;;5035395;28;20468;-59
2023/07/26 08:52:53;;;;;;;3.92;0.90;;;21.20;69.10;;;;;;5033838;28;20055;-58
2023/07/26 08:55:19;;;;;;;8.55;1.30;;;21.20;69.00;;;;;;5035127;28;20412;-59
2023/07/26 08:57:44;;;;;;;5.20;1.30;;;21.20;69.00;;;;;;5035229;28;20136;-59
2023/07/26 09:00:11;;;;;;;2.95;1.02;;;21.20;69.00;;;;;;5035667;28;20080;-59
2023/07/26 09:02:37;;;;;;;6.03;1.27;;;21.20;69.10;;;;;;5035101;28;20054;-59
2023/07/26 09:05:02;;;;;;;4.75;1.02;;;21.20;69.00;;;;;;5034195;28;20143;-59
2023/07/26 09:07:28;;;;;;;6.82;1.38;;;21.30;69.10;;;;;;5035597;28;20041;-59
2023/07/26 09:09:54;;;;;;;10.48;1.58;;;21.30;69.10;;;;;;5033749;28;20053;-59
2023/07/26 09:12:28;;;;;;;5.45;1.38;;;21.30;69.10;;;;;;5033872;28;20045;-59
2023/07/26 09:14:58;;;;;;;3.67;1.02;;;21.30;69.00;;;;;;5035084;28;20324;-59
2023/07/26 09:17:39;;;;;;;6.80;1.40;;;21.30;68.90;;;;;;5034980;28;20052;-59
2023/07/26 09:20:07;;;;;;;5.53;1.17;;;21.30;68.90;;;;;;5035472;28;20587;-59
2023/07/26 09:22:33;;;;;;;5.53;1.23;;;21.20;68.80;;;;;;5033381;28;20046;-59
2023/07/26 09:24:59;;;;;;;5.07;1.17;;;21.30;68.80;;;;;;5016765;28;20050;-59
2023/07/26 09:27:26;;;;;;;4.85;1.10;;;21.20;68.70;;;;;;5035275;28;20045;-59
2023/07/26 09:29:55;;;;;;;3.92;1.17;;;21.20;68.90;;;;;;5033510;28;20040;-60
2023/07/26 09:32:28;;;;;;;3.88;1.17;;;21.30;69.00;;;;;;5035058;28;20045;-59
2023/07/26 09:34:59;;;;;;;3.72;1.08;;;21.30;69.10;;;;;;5034859;28;20060;-59
2023/07/26 09:37:24;;;;;;;6.18;1.63;;;21.30;69.10;;;;;;5033441;28;20033;-59
2023/07/26 09:39:50;;;;;;;3.50;1.15;;;21.30;69.70;;;;;;5018293;28;20448;-60
2023/07/26 09:42:16;;;;;;;5.43;1.10;;;21.30;69.10;;;;;;5015373;28;20041;-59
2023/07/26 09:44:42;;;;;;;4.78;1.15;;;21.40;69.10;;;;;;5032592;28;20041;-60
2023/07/26 09:47:08;;;;;;;3.25;1.10;;;21.40;69.60;;;;;;5033515;28;20518;-59
2023/07/26 09:49:33;;;;;;;4.60;1.23;;;21.40;69.00;;;;;;5034664;28;20042;-60
2023/07/26 09:52:00;;;;;;;8.52;1.50;;;21.40;69.00;;;;;;5034387;28;20080;-59
2023/07/26 09:54:27;;;;;;;4.57;1.23;;;21.40;68.90;;;;;;5032749;28;20041;-60
2023/07/26 09:56:54;;;;;;;2.70;1.03;;;21.50;69.00;;;;;;5034470;28;20197;-59
2023/07/26 09:59:20;;;;;;;4.30;0.95;;;21.50;69.00;;;;;;5034142;28;20167;-60
2023/07/26 10:01:45;;;;;;;5.30;1.20;;;21.50;68.90;;;;;;5033038;28;20073;-60
2023/07/26 10:04:12;;;;;;;3.75;1.42;;;21.50;68.90;;;;;;5033376;28;20045;-60
2023/07/26 10:06:38;;;;;;;3.58;1.30;;;21.50;68.90;;;;;;5032002;28;20056;-60
2023/07/26 10:09:03;;;;;;;5.18;1.10;;;21.50;68.90;;;;;;5033081;28;20049;-60
2023/07/26 10:11:29;;;;;;;3.80;1.30;;;21.50;68.90;;;;;;5034155;28;20049;-60
2023/07/26 10:13:59;;;;;;;3.70;1.40;;;21.50;68.90;;;;;;5032180;28;20095;-60
2023/07/26 10:16:25;;;;;;;4.60;1.30;;;21.60;69.50;;;;;;5034276;28;20088;-60
2023/07/26 10:18:51;;;;;;;4.50;1.40;;;21.50;68.90;;;;;;5033980;28;20072;-63
2023/07/26 10:21:18;;;;;;;4.53;1.52;;;21.60;69.00;;;;;;5032699;28;20049;-59
2023/07/26 10:23:44;;;;;;;13.18;1.92;;;21.60;69.00;;;;;;5033557;28;20052;-59
2023/07/26 10:26:09;;;;;;;5.72;1.73;;;21.60;68.90;;;;;;5031477;28;20041;-59
2023/07/26 10:28:35;;;;;;;6.78;1.45;;;21.60;68.80;;;;;;5033068;28;20041;-60
2023/07/26 10:31:01;;;;;;;6.53;1.27;;;21.60;68.80;;;;;;5029150;28;20072;-60
2023/07/26 10:33:27;;;;;;;3.72;1.40;;;21.60;68.70;;;;;;5031376;28;20041;-59
2023/07/26 10:35:53;;;;;;;4.85;1.13;;;21.60;68.50;;;;;;5031035;28;20124;-60
2023/07/26 10:38:19;;;;;;;5.28;1.10;;;21.60;68.50;;;;;;5015135;28;20129;-59
2023/07/26 10:40:44;;;;;;;2.25;1.10;;;21.60;69.10;;;;;;5031504;28;20562;-60
2023/07/26 10:43:20;;;;;;;5.72;1.30;;;21.60;68.50;;;;;;5033537;28;20121;-59
2023/07/26 10:45:46;;;;;;;3.10;1.15;;;21.70;68.40;;;;;;5033356;28;20077;-59
2023/07/26 10:48:27;;;;;;;3.15;1.40;;;21.70;68.30;;;;;;5033045;28;20389;-60
2023/07/26 10:50:58;;;;;;;2.60;1.02;;;21.70;68.30;;;;;;5031621;28;20049;-60
2023/07/26 10:53:26;;;;;;;3.33;1.40;;;21.70;68.30;;;;;;5033689;28;20456;-59
2023/07/26 10:55:52;;;;;;;3.85;1.20;;;21.70;68.30;;;;;;5031351;28;20400;-60
2023/07/26 10:58:18;;;;;;;4.90;1.35;;;21.70;68.20;;;;;;5032334;28;20112;-59
2023/07/26 11:00:45;;;;;;;6.72;1.40;;;21.70;68.30;;;;;;5033166;28;20374;-59
2023/07/26 11:03:11;;;;;;;5.25;1.27;;;21.70;68.20;;;;;;5032638;28;20041;-60
2023/07/26 11:05:38;;;;;;;4.88;1.33;;;21.70;68.20;;;;;;5032857;28;20052;-59
2023/07/26 11:08:07;;;;;;;5.10;1.10;;;21.80;68.00;;;;;;5033317;28;20151;-60
2023/07/26 11:10:34;;;;;;;8.13;1.63;;;21.80;67.90;;;;;;5032275;28;20037;-60
2023/07/26 11:13:19;;;;;;;5.05;1.48;;;21.70;67.50;;;;;;5033313;28;20493;-60
2023/07/26 11:15:47;;;;;;;3.75;1.00;;;21.70;67.20;;;;;;5032512;28;20049;-59
2023/07/26 11:18:13;;;;;;;4.90;1.27;;;21.70;67.10;;;;;;5033152;28;20385;-59
2023/07/26 11:20:50;;;;;;;5.03;1.75;;;21.60;66.80;;;;;;5033155;28;20060;-59
2023/07/26 11:23:22;;;;;;;4.43;1.40;;;21.60;66.60;;;;;;5032868;28;20057;-59
2023/07/26 11:25:49;;;;;;;4.40;1.63;;;21.60;66.60;;;;;;5032485;28;20045;-59
2023/07/26 11:28:15;;;;;;;3.60;1.25;;;21.60;65.80;;;;;;5032945;28;20049;-59
2023/07/26 11:30:45;;;;;;;5.15;1.80;;;21.60;65.70;;;;;;5031942;28;20045;-60
2023/07/26 11:33:10;;;;;;;5.40;1.55;;;21.60;65.60;;;;;;5032994;28;20048;-59
2023/07/26 11:35:42;;;;;;;4.75;1.30;;;21.60;65.60;;;;;;5031987;28;20049;-59
2023/07/26 11:38:13;;;;;;;4.82;1.83;;;21.60;65.60;;;;;;5030471;28;20041;-59
2023/07/26 11:40:39;;;;;;;7.60;1.60;;;21.60;65.50;;;;;;5031193;28;20060;-59
2023/07/26 11:43:05;;;;;;;4.85;1.60;;;21.60;65.40;;;;;;5032645;28;20124;-59
2023/07/26 11:45:32;;;;;;;4.10;1.40;;;21.60;65.30;;;;;;5031975;28;20108;-59
2023/07/26 11:47:57;;;;;;;4.75;1.48;;;21.60;65.30;;;;;;5014370;28;20132;-59
2023/07/26 11:50:23;;;;;;;6.32;1.60;;;21.60;65.30;;;;;;5032814;28;20108;-59
2023/07/26 11:53:05;;;;;;;4.32;1.33;;;21.50;65.30;;;;;;5031321;28;20088;-59
2023/07/26 11:55:32;;;;;;;4.75;1.33;;;21.50;65.10;;;;;;5032520;28;20041;-59
2023/07/26 11:58:04;;;;;;;4.15;1.60;;;21.50;65.30;;;;;;5030439;28;20050;-59
2023/07/26 12:00:31;;;;;;;3.92;1.55;;;21.50;65.20;;;;;;5032970;28;20069;-60
2023/07/26 12:02:57;;;;;;;2.95;1.23;;;21.50;65.30;;;;;;5031955;28;20037;-59
2023/07/26 12:05:25;;;;;;;3.92;1.40;;;21.50;65.40;;;;;;5018586;28;20124;-59
2023/07/26 12:07:52;;;;;;;3.95;1.30;;;21.50;65.50;;;;;;5018525;28;20498;-59
2023/07/26 12:10:29;;;;;;;4.80;1.27;;;21.50;65.50;;;;;;5019480;28;20049;-59
2023/07/26 12:12:55;;;;;;;3.40;1.40;;;21.50;65.60;;;;;;5018275;28;20050;-59
2023/07/26 12:15:21;;;;;;;3.13;1.30;;;21.50;65.70;;;;;;5034503;28;20048;-59
2023/07/26 12:18:00;;;;;;;4.25;1.52;;;21.50;65.80;;;;;;5034301;28;20069;-60
2023/07/26 12:20:27;;;;;;;3.92;1.70;;;21.60;65.90;;;;;;5017742;28;20088;-59
2023/07/26 12:22:57;;;;;;;5.38;1.38;;;21.60;66.00;;;;;;5018690;28;20386;-59
2023/07/26 12:25:35;;;;;;;7.07;1.67;;;21.60;66.10;;;;;;5017977;28;20045;-59
2023/07/26 12:28:00;;;;;;;5.30;1.67;;;21.60;66.20;;;;;;5018631;28;20053;-59
2023/07/26 12:30:27;;;;;;;7.10;1.42;;;21.60;66.80;;;;;;5051999;28;20037;-59
2023/07/26 12:33:11;;;;;;;2.97;1.23;;;21.60;66.20;;;;;;5031383;28;20092;-59
2023/07/26 12:35:38;;;;;;;5.53;1.50;;;21.70;66.30;;;;;;5037982;28;20115;-59
2023/07/26 12:38:22;;;;;;;5.95;1.65;;;21.70;66.30;;;;;;5038553;28;20049;-59
2023/07/26 12:40:49;;;;;;;3.38;1.40;;;21.80;66.40;;;;;;5037067;28;20037;-59